Kitty C — 2EIQ6 — position and weather

sailwx.info

Track history (hours):
 
Tides and Currents Weather Stations Pressure Air Temp Water Temp Dewpoint Dewpoint Depression Visibility Wind Speed Wind Dir Waves Ship Positions

Kitty C

Last reported at 2017-Jan-17 07:21 UTC. Time now 2017-Jan-20 05:52 UTC.
Position N 36°03' W 005°12'.

Length 106 m; draft 6.5 m.

Type: Cargo ship. MMSI: 235085464.

Date/timePositionNaut miles runAvg speedWind from/ knotsBaromVisibWave heightAir tempDewpointWater temp
2017-Jan-17 07:21N 36°03' W 005°12'911.2
2017-Jan-17 06:33N 36°06' W 005°23'2 0.3
2017-Jan-16 22:33N 36°05' W 005°20'2 1.5
2017-Jan-16 21:34N 36°04' W 005°20'8 8.4
2017-Jan-16 20:34N 35°58' W 005°27'260 8.7
2017-Jan-15 14:33N 38°21' W 010°00'1010.4
2017-Jan-15 13:33N 38°32' W 010°03'1010.2
2017-Jan-15 12:33N 38°42' W 010°06'1010.2
2017-Jan-15 11:34N 38°52' W 010°06'1010.2
2017-Jan-15 10:33N 39°02' W 010°06'1010.4
2017-Jan-15 09:33N 39°12' W 010°06'1010.0
2017-Jan-15 08:32N 39°23' W 010°06'  
2017-Jan-11 21:33N 48°52' W 005°50'19 9.5
2017-Jan-11 19:33N 49°04' W 005°27'78 7.5
2017-Jan-11 09:03N 49°48' W 003°48'22 7.8
2017-Jan-11 06:15N 49°60' W 003°19'5 6.8
2017-Jan-11 05:30N 50°03' W 003°13'6010.1
2017-Jan-10 23:33N 50°34' W 001°52'1211.5
2017-Jan-10 22:34N 50°40' W 001°37'1212.4
2017-Jan-10 21:33N 50°46' W 001°20'7 2.3
2017-Jan-10 18:28N 50°53' W 001°24'0 0.0
2017-Jan-10 09:31N 50°53' W 001°24'0 0.0
2017-Jan-10 06:22N 50°53' W 001°24'0 0.0
2017-Jan-10 04:19N 50°53' W 001°24'0 0.0
2017-Jan-10 03:31N 50°53' W 001°24'0 0.0
2017-Jan-09 23:31N 50°53' W 001°24'0 0.0
2017-Jan-09 22:16N 50°53' W 001°24'0 0.0
2017-Jan-09 19:22N 50°53' W 001°24'0 0.0
2017-Jan-09 18:31N 50°53' W 001°24'0 0.0
2017-Jan-09 17:28N 50°53' W 001°24'0 0.0
2017-Jan-09 15:25N 50°53' W 001°24'0 0.0
2017-Jan-09 14:33N 50°53' W 001°24'6 6.4
2017-Jan-09 13:33N 50°47' W 001°19'6 5.6
2017-Jan-09 12:33N 50°44' W 001°26'9 8.7
2017-Jan-09 11:34N 50°39' W 001°37'4 4.1
2017-Jan-09 10:33N 50°38' W 001°43'2 1.7
2017-Jan-09 09:33N 50°37' W 001°40'6 5.8
2017-Jan-09 08:33N 50°36' W 001°49'89 9.9
2017-Jan-08 23:31N 50°02' W 003°58'1210.1
2017-Jan-08 22:22N 49°57' W 004°15'810.4
2017-Jan-08 21:33N 49°54' W 004°26'1110.2
2017-Jan-08 20:27N 49°53' W 004°44'75 6.8
2017-Jan-08 09:28N 50°51' W 005°59'84 9.0
2017-Jan-08 00:09N 52°14' W 005°50'12110.1
2017-Jan-07 12:08N 54°14' W 005°19'6 9.6
2017-Jan-07 11:33N 54°20' W 005°18'9 9.1
2017-Jan-07 10:33N 54°29' W 005°19'9 8.8
2017-Jan-07 09:33N 54°37' W 005°24'7 7.1
2017-Jan-07 08:33N 54°43' W 005°31'6 5.9
2017-Jan-07 07:32N 54°41' W 005°41'  
Track history (hours):
 
Tides and Currents Weather Stations Pressure Air Temp Water Temp Dewpoint Dewpoint Depression Visibility Wind Speed Wind Dir Waves Ship Positions

Kitty C

Last reported at 2017-Jan-17 07:21 UTC. Time now 2017-Jan-20 05:52 UTC.
Position N 36°03' W 005°12'.

Length 106 m; draft 6.5 m.

Type: Cargo ship. MMSI: 235085464.

Date/timePositionNaut miles runAvg speedWind from/ knotsBaromVisibWave heightAir tempDewpointWater temp
2017-Jan-17 07:21N 36°03' W 005°12'911.2
2017-Jan-17 06:33N 36°06' W 005°23'2 0.3
2017-Jan-16 22:33N 36°05' W 005°20'2 1.5
2017-Jan-16 21:34N 36°04' W 005°20'8 8.4
2017-Jan-16 20:34N 35°58' W 005°27'260 8.7
2017-Jan-15 14:33N 38°21' W 010°00'1010.4
2017-Jan-15 13:33N 38°32' W 010°03'1010.2
2017-Jan-15 12:33N 38°42' W 010°06'1010.2
2017-Jan-15 11:34N 38°52' W 010°06'1010.2
2017-Jan-15 10:33N 39°02' W 010°06'1010.4
2017-Jan-15 09:33N 39°12' W 010°06'1010.0
2017-Jan-15 08:32N 39°23' W 010°06'  
2017-Jan-11 21:33N 48°52' W 005°50'19 9.5
2017-Jan-11 19:33N 49°04' W 005°27'78 7.5
2017-Jan-11 09:03N 49°48' W 003°48'22 7.8
2017-Jan-11 06:15N 49°60' W 003°19'5 6.8
2017-Jan-11 05:30N 50°03' W 003°13'6010.1
2017-Jan-10 23:33N 50°34' W 001°52'1211.5
2017-Jan-10 22:34N 50°40' W 001°37'1212.4
2017-Jan-10 21:33N 50°46' W 001°20'7 2.3
2017-Jan-10 18:28N 50°53' W 001°24'0 0.0
2017-Jan-10 09:31N 50°53' W 001°24'0 0.0
2017-Jan-10 06:22N 50°53' W 001°24'0 0.0
2017-Jan-10 04:19N 50°53' W 001°24'0 0.0
2017-Jan-10 03:31N 50°53' W 001°24'0 0.0
2017-Jan-09 23:31N 50°53' W 001°24'0 0.0
2017-Jan-09 22:16N 50°53' W 001°24'0 0.0
2017-Jan-09 19:22N 50°53' W 001°24'0 0.0
2017-Jan-09 18:31N 50°53' W 001°24'0 0.0
2017-Jan-09 17:28N 50°53' W 001°24'0 0.0
2017-Jan-09 15:25N 50°53' W 001°24'0 0.0
2017-Jan-09 14:33N 50°53' W 001°24'6 6.4
2017-Jan-09 13:33N 50°47' W 001°19'6 5.6
2017-Jan-09 12:33N 50°44' W 001°26'9 8.7
2017-Jan-09 11:34N 50°39' W 001°37'4 4.1
2017-Jan-09 10:33N 50°38' W 001°43'2 1.7
2017-Jan-09 09:33N 50°37' W 001°40'6 5.8
2017-Jan-09 08:33N 50°36' W 001°49'89 9.9
2017-Jan-08 23:31N 50°02' W 003°58'1210.1
2017-Jan-08 22:22N 49°57' W 004°15'810.4
2017-Jan-08 21:33N 49°54' W 004°26'1110.2
2017-Jan-08 20:27N 49°53' W 004°44'75 6.8
2017-Jan-08 09:28N 50°51' W 005°59'84 9.0
2017-Jan-08 00:09N 52°14' W 005°50'12110.1
2017-Jan-07 12:08N 54°14' W 005°19'6 9.6
2017-Jan-07 11:33N 54°20' W 005°18'9 9.1
2017-Jan-07 10:33N 54°29' W 005°19'9 8.8
2017-Jan-07 09:33N 54°37' W 005°24'7 7.1
2017-Jan-07 08:33N 54°43' W 005°31'6 5.9
2017-Jan-07 07:32N 54°41' W 005°41'  

Dump ship's entire track history